sensor_id;sensor_type;location;lat;lon;timestamp;temperature;humidity
20827;DHT22;10574;52.508;13.236;2022-10-16T00:01:19;14.90;99.90
20827;DHT22;10574;52.508;13.236;2022-10-16T00:03:47;14.90;99.90
20827;DHT22;10574;52.508;13.236;2022-10-16T00:06:17;14.90;99.90
20827;DHT22;10574;52.508;13.236;2022-10-16T00:08:45;15.00;99.90
20827;DHT22;10574;52.508;13.236;2022-10-16T00:11:22;15.00;99.90
20827;DHT22;10574;52.508;13.236;2022-10-16T00:13:51;15.00;99.90
20827;DHT22;10574;52.508;13.236;2022-10-16T00:16:19;15.00;99.90
20827;DHT22;10574;52.508;13.236;2022-10-16T00:18:47;15.00;99.90
20827;DHT22;10574;52.508;13.236;2022-10-16T00:21:18;15.00;99.90
20827;DHT22;10574;52.508;13.236;2022-10-16T00:23:46;15.00;99.90
20827;DHT22;10574;52.508;13.236;2022-10-16T00:26:15;15.10;99.90
20827;DHT22;10574;52.508;13.236;2022-10-16T00:28:48;15.10;99.90
20827;DHT22;10574;52.508;13.236;2022-10-16T00:31:17;15.10;99.90
20827;DHT22;10574;52.508;13.236;2022-10-16T00:33:45;15.10;99.90
20827;DHT22;10574;52.508;13.236;2022-10-16T00:36:16;15.10;99.90
20827;DHT22;10574;52.508;13.236;2022-10-16T00:38:44;15.10;99.90
20827;DHT22;10574;52.508;13.236;2022-10-16T00:41:15;15.20;99.90
20827;DHT22;10574;52.508;13.236;2022-10-16T00:43:49;15.30;99.90
20827;DHT22;10574;52.508;13.236;2022-10-16T00:46:22;15.20;99.90
20827;DHT22;10574;52.508;13.236;2022-10-16T00:49:08;15.30;99.90
20827;DHT22;10574;52.508;13.236;2022-10-16T00:51:39;15.30;99.90
20827;DHT22;10574;52.508;13.236;2022-10-16T00:54:18;15.30;99.90
20827;DHT22;10574;52.508;13.236;2022-10-16T00:56:47;15.30;99.90
20827;DHT22;10574;52.508;13.236;2022-10-16T00:59:22;15.30;99.90
20827;DHT22;10574;52.508;13.236;2022-10-16T01:01:52;15.40;99.90
20827;DHT22;10574;52.508;13.236;2022-10-16T01:04:20;15.40;99.90
20827;DHT22;10574;52.508;13.236;2022-10-16T01:09:37;15.40;99.90
20827;DHT22;10574;52.508;13.236;2022-10-16T01:17:58;15.40;99.90
20827;DHT22;10574;52.508;13.236;2022-10-16T01:20:35;15.40;99.90
20827;DHT22;10574;52.508;13.236;2022-10-16T01:23:09;15.40;99.90
20827;DHT22;10574;52.508;13.236;2022-10-16T01:28:08;15.40;99.90
20827;DHT22;10574;52.508;13.236;2022-10-16T01:30:37;15.40;99.90
20827;DHT22;10574;52.508;13.236;2022-10-16T01:33:13;15.40;99.90
20827;DHT22;10574;52.508;13.236;2022-10-16T01:35:44;15.40;99.90
20827;DHT22;10574;52.508;13.236;2022-10-16T01:40:55;15.40;99.90
20827;DHT22;10574;52.508;13.236;2022-10-16T01:43:33;15.40;99.90
20827;DHT22;10574;52.508;13.236;2022-10-16T01:46:01;15.40;99.90
20827;DHT22;10574;52.508;13.236;2022-10-16T01:48:29;15.40;99.90
20827;DHT22;10574;52.508;13.236;2022-10-16T01:51:04;15.40;99.90
20827;DHT22;10574;52.508;13.236;2022-10-16T01:53:33;15.40;99.90
20827;DHT22;10574;52.508;13.236;2022-10-16T01:56:02;15.30;99.90
20827;DHT22;10574;52.508;13.236;2022-10-16T01:58:33;15.30;99.90
20827;DHT22;10574;52.508;13.236;2022-10-16T02:01:03;15.30;99.90
20827;DHT22;10574;52.508;13.236;2022-10-16T02:03:35;15.30;99.90
20827;DHT22;10574;52.508;13.236;2022-10-16T02:06:04;15.30;99.90
20827;DHT22;10574;52.508;13.236;2022-10-16T02:08:32;15.30;99.90
20827;DHT22;10574;52.508;13.236;2022-10-16T02:11:01;15.30;99.90
20827;DHT22;10574;52.508;13.236;2022-10-16T02:16:06;15.30;99.90
20827;DHT22;10574;52.508;13.236;2022-10-16T02:18:34;15.30;99.90
20827;DHT22;10574;52.508;13.236;2022-10-16T02:21:23;15.30;99.90
20827;DHT22;10574;52.508;13.236;2022-10-16T02:27:07;15.30;99.90
20827;DHT22;10574;52.508;13.236;2022-10-16T02:29:42;15.30;99.90
20827;DHT22;10574;52.508;13.236;2022-10-16T02:32:07;15.30;99.90
20827;DHT22;10574;52.508;13.236;2022-10-16T02:34:36;15.30;99.90
20827;DHT22;10574;52.508;13.236;2022-10-16T02:37:05;15.30;99.90
20827;DHT22;10574;52.508;13.236;2022-10-16T02:39:33;15.30;99.90
20827;DHT22;10574;52.508;13.236;2022-10-16T02:42:01;15.30;99.90
20827;DHT22;10574;52.508;13.236;2022-10-16T02:44:29;15.30;99.90
20827;DHT22;10574;52.508;13.236;2022-10-16T02:46:58;15.30;99.90
20827;DHT22;10574;52.508;13.236;2022-10-16T02:49:25;15.30;99.90
20827;DHT22;10574;52.508;13.236;2022-10-16T02:51:53;15.30;99.90
20827;DHT22;10574;52.508;13.236;2022-10-16T02:54:20;15.30;99.90
20827;DHT22;10574;52.508;13.236;2022-10-16T02:56:48;15.30;99.90
20827;DHT22;10574;52.508;13.236;2022-10-16T02:59:15;15.30;99.90
20827;DHT22;10574;52.508;13.236;2022-10-16T03:01:43;15.30;99.90
20827;DHT22;10574;52.508;13.236;2022-10-16T03:04:10;15.20;99.90
20827;DHT22;10574;52.508;13.236;2022-10-16T03:06:38;15.20;99.90
20827;DHT22;10574;52.508;13.236;2022-10-16T03:09:05;15.20;99.90
20827;DHT22;10574;52.508;13.236;2022-10-16T03:11:33;15.20;99.90
20827;DHT22;10574;52.508;13.236;2022-10-16T03:14:01;15.20;99.90
20827;DHT22;10574;52.508;13.236;2022-10-16T03:16:28;15.10;99.90
20827;DHT22;10574;52.508;13.236;2022-10-16T03:18:56;15.00;99.90
20827;DHT22;10574;52.508;13.236;2022-10-16T03:21:23;15.00;99.90
20827;DHT22;10574;52.508;13.236;2022-10-16T03:23:51;15.00;99.90
20827;DHT22;10574;52.508;13.236;2022-10-16T03:26:18;15.00;99.90
20827;DHT22;10574;52.508;13.236;2022-10-16T03:28:46;14.90;99.90
20827;DHT22;10574;52.508;13.236;2022-10-16T03:31:13;14.90;99.90
20827;DHT22;10574;52.508;13.236;2022-10-16T03:33:41;14.90;99.90
20827;DHT22;10574;52.508;13.236;2022-10-16T03:36:08;14.70;99.90
20827;DHT22;10574;52.508;13.236;2022-10-16T03:38:36;14.60;99.90
20827;DHT22;10574;52.508;13.236;2022-10-16T03:41:03;14.60;99.90
20827;DHT22;10574;52.508;13.236;2022-10-16T03:43:31;14.60;99.90
20827;DHT22;10574;52.508;13.236;2022-10-16T03:45:59;14.60;99.90
20827;DHT22;10574;52.508;13.236;2022-10-16T03:48:26;14.60;99.90
20827;DHT22;10574;52.508;13.236;2022-10-16T03:50:54;14.60;99.90
20827;DHT22;10574;52.508;13.236;2022-10-16T03:53:21;14.60;99.90
20827;DHT22;10574;52.508;13.236;2022-10-16T03:55:49;14.60;99.90
20827;DHT22;10574;52.508;13.236;2022-10-16T03:58:17;14.60;99.90
20827;DHT22;10574;52.508;13.236;2022-10-16T04:00:47;14.60;99.90
20827;DHT22;10574;52.508;13.236;2022-10-16T04:03:15;14.50;99.90
20827;DHT22;10574;52.508;13.236;2022-10-16T04:05:43;14.50;99.90
20827;DHT22;10574;52.508;13.236;2022-10-16T04:08:16;14.50;99.90
20827;DHT22;10574;52.508;13.236;2022-10-16T04:10:45;14.50;99.90
20827;DHT22;10574;52.508;13.236;2022-10-16T04:15:50;14.60;99.90
20827;DHT22;10574;52.508;13.236;2022-10-16T04:18:17;14.50;99.90
20827;DHT22;10574;52.508;13.236;2022-10-16T04:20:45;14.50;99.90
20827;DHT22;10574;52.508;13.236;2022-10-16T04:23:12;14.50;99.90
20827;DHT22;10574;52.508;13.236;2022-10-16T04:25:40;14.50;99.90
20827;DHT22;10574;52.508;13.236;2022-10-16T04:28:07;14.50;99.90
20827;DHT22;10574;52.508;13.236;2022-10-16T04:30:37;14.40;99.90
20827;DHT22;10574;52.508;13.236;2022-10-16T04:33:04;14.40;99.90
20827;DHT22;10574;52.508;13.236;2022-10-16T04:35:31;14.40;99.90
20827;DHT22;10574;52.508;13.236;2022-10-16T04:37:59;14.40;99.90
20827;DHT22;10574;52.508;13.236;2022-10-16T04:40:26;14.40;99.90
20827;DHT22;10574;52.508;13.236;2022-10-16T04:42:54;14.30;99.90
20827;DHT22;10574;52.508;13.236;2022-10-16T04:45:22;14.30;99.90
20827;DHT22;10574;52.508;13.236;2022-10-16T04:47:49;14.30;99.90
20827;DHT22;10574;52.508;13.236;2022-10-16T04:50:17;14.30;99.90
20827;DHT22;10574;52.508;13.236;2022-10-16T04:52:44;14.30;99.90
20827;DHT22;10574;52.508;13.236;2022-10-16T04:55:12;14.30;99.90
20827;DHT22;10574;52.508;13.236;2022-10-16T04:57:40;14.20;99.90
20827;DHT22;10574;52.508;13.236;2022-10-16T05:00:09;14.20;99.90
20827;DHT22;10574;52.508;13.236;2022-10-16T05:02:36;14.20;99.90
20827;DHT22;10574;52.508;13.236;2022-10-16T05:05:04;14.20;99.90
20827;DHT22;10574;52.508;13.236;2022-10-16T05:07:32;14.20;99.90
20827;DHT22;10574;52.508;13.236;2022-10-16T05:10:00;14.10;99.90
20827;DHT22;10574;52.508;13.236;2022-10-16T05:12:27;14.10;99.90
20827;DHT22;10574;52.508;13.236;2022-10-16T05:14:55;14.10;99.90
20827;DHT22;10574;52.508;13.236;2022-10-16T05:17:25;14.10;99.90
20827;DHT22;10574;52.508;13.236;2022-10-16T05:19:53;14.10;99.90
20827;DHT22;10574;52.508;13.236;2022-10-16T05:22:20;14.10;99.90
20827;DHT22;10574;52.508;13.236;2022-10-16T05:24:48;14.00;99.90
20827;DHT22;10574;52.508;13.236;2022-10-16T05:27:15;14.00;99.90
20827;DHT22;10574;52.508;13.236;2022-10-16T05:29:48;14.00;99.90
20827;DHT22;10574;52.508;13.236;2022-10-16T05:32:18;14.00;99.90
20827;DHT22;10574;52.508;13.236;2022-10-16T05:34:46;14.00;99.90
20827;DHT22;10574;52.508;13.236;2022-10-16T05:37:13;14.00;99.90
20827;DHT22;10574;52.508;13.236;2022-10-16T05:39:41;14.10;99.90
20827;DHT22;10574;52.508;13.236;2022-10-16T05:42:09;14.10;99.90
20827;DHT22;10574;52.508;13.236;2022-10-16T05:44:37;14.10;99.90
20827;DHT22;10574;52.508;13.236;2022-10-16T05:47:05;14.10;99.90
20827;DHT22;10574;52.508;13.236;2022-10-16T05:49:32;14.10;99.90
20827;DHT22;10574;52.508;13.236;2022-10-16T05:52:00;14.10;99.90
20827;DHT22;10574;52.508;13.236;2022-10-16T05:54:27;14.10;99.90
20827;DHT22;10574;52.508;13.236;2022-10-16T05:56:55;14.10;99.90
20827;DHT22;10574;52.508;13.236;2022-10-16T05:59:23;14.10;99.90
20827;DHT22;10574;52.508;13.236;2022-10-16T06:01:50;14.20;99.90
20827;DHT22;10574;52.508;13.236;2022-10-16T06:04:20;14.10;99.90
20827;DHT22;10574;52.508;13.236;2022-10-16T06:06:47;14.10;99.90
20827;DHT22;10574;52.508;13.236;2022-10-16T06:09:15;14.20;99.90
20827;DHT22;10574;52.508;13.236;2022-10-16T06:11:42;14.20;99.90
20827;DHT22;10574;52.508;13.236;2022-10-16T06:14:10;14.20;99.90
20827;DHT22;10574;52.508;13.236;2022-10-16T06:16:37;14.20;99.90
20827;DHT22;10574;52.508;13.236;2022-10-16T06:19:05;14.20;99.90
20827;DHT22;10574;52.508;13.236;2022-10-16T06:21:34;14.20;99.90
20827;DHT22;10574;52.508;13.236;2022-10-16T06:24:02;14.20;99.90
20827;DHT22;10574;52.508;13.236;2022-10-16T06:26:31;14.30;99.90
20827;DHT22;10574;52.508;13.236;2022-10-16T06:28:59;14.30;99.90
20827;DHT22;10574;52.508;13.236;2022-10-16T06:31:28;14.40;99.90
20827;DHT22;10574;52.508;13.236;2022-10-16T06:33:58;14.40;99.90
20827;DHT22;10574;52.508;13.236;2022-10-16T06:36:26;14.40;99.90
20827;DHT22;10574;52.508;13.236;2022-10-16T06:38:54;14.40;99.90
20827;DHT22;10574;52.508;13.236;2022-10-16T06:41:31;14.50;99.90
20827;DHT22;10574;52.508;13.236;2022-10-16T06:44:00;14.50;99.90
20827;DHT22;10574;52.508;13.236;2022-10-16T06:46:28;14.50;99.90
20827;DHT22;10574;52.508;13.236;2022-10-16T06:48:55;14.50;99.90
20827;DHT22;10574;52.508;13.236;2022-10-16T06:51:24;14.50;99.90
20827;DHT22;10574;52.508;13.236;2022-10-16T06:53:53;14.60;99.90
20827;DHT22;10574;52.508;13.236;2022-10-16T06:56:25;14.60;99.90
20827;DHT22;10574;52.508;13.236;2022-10-16T06:58:54;14.70;99.90
20827;DHT22;10574;52.508;13.236;2022-10-16T07:01:23;14.70;99.90
20827;DHT22;10574;52.508;13.236;2022-10-16T07:03:51;14.80;99.90
20827;DHT22;10574;52.508;13.236;2022-10-16T07:06:21;14.90;99.90
20827;DHT22;10574;52.508;13.236;2022-10-16T07:08:49;15.00;99.90
20827;DHT22;10574;52.508;13.236;2022-10-16T07:11:19;15.10;99.90
20827;DHT22;10574;52.508;13.236;2022-10-16T07:13:48;15.20;99.90
20827;DHT22;10574;52.508;13.236;2022-10-16T07:16:18;15.30;99.90
20827;DHT22;10574;52.508;13.236;2022-10-16T07:18:47;15.30;99.90
20827;DHT22;10574;52.508;13.236;2022-10-16T07:21:18;15.30;99.90
20827;DHT22;10574;52.508;13.236;2022-10-16T07:23:54;15.40;99.90
20827;DHT22;10574;52.508;13.236;2022-10-16T07:26:29;15.50;99.90
20827;DHT22;10574;52.508;13.236;2022-10-16T07:28:57;15.50;99.90
20827;DHT22;10574;52.508;13.236;2022-10-16T07:31:25;15.60;99.90
20827;DHT22;10574;52.508;13.236;2022-10-16T07:33:53;15.70;99.90
20827;DHT22;10574;52.508;13.236;2022-10-16T07:36:21;15.80;99.90
20827;DHT22;10574;52.508;13.236;2022-10-16T07:38:49;15.80;99.90
20827;DHT22;10574;52.508;13.236;2022-10-16T07:41:19;15.90;99.90
20827;DHT22;10574;52.508;13.236;2022-10-16T07:43:51;15.90;99.90
20827;DHT22;10574;52.508;13.236;2022-10-16T07:46:21;16.00;99.90
20827;DHT22;10574;52.508;13.236;2022-10-16T07:48:50;16.00;99.90
20827;DHT22;10574;52.508;13.236;2022-10-16T07:51:19;16.00;99.90
20827;DHT22;10574;52.508;13.236;2022-10-16T07:53:47;16.00;99.90
20827;DHT22;10574;52.508;13.236;2022-10-16T07:56:16;16.00;99.90
20827;DHT22;10574;52.508;13.236;2022-10-16T07:58:44;16.00;99.90
20827;DHT22;10574;52.508;13.236;2022-10-16T08:01:14;16.00;99.90
20827;DHT22;10574;52.508;13.236;2022-10-16T08:03:43;16.10;99.90
20827;DHT22;10574;52.508;13.236;2022-10-16T08:06:13;16.10;99.90
20827;DHT22;10574;52.508;13.236;2022-10-16T08:08:41;16.10;99.90
20827;DHT22;10574;52.508;13.236;2022-10-16T08:11:09;16.10;99.90
20827;DHT22;10574;52.508;13.236;2022-10-16T08:13:36;16.20;99.90
20827;DHT22;10574;52.508;13.236;2022-10-16T08:16:10;16.20;99.90
20827;DHT22;10574;52.508;13.236;2022-10-16T08:18:39;16.20;99.90
20827;DHT22;10574;52.508;13.236;2022-10-16T08:21:08;16.30;99.90
20827;DHT22;10574;52.508;13.236;2022-10-16T08:23:37;16.30;99.90
20827;DHT22;10574;52.508;13.236;2022-10-16T08:26:07;16.30;99.90
20827;DHT22;10574;52.508;13.236;2022-10-16T08:28:35;16.40;99.90
20827;DHT22;10574;52.508;13.236;2022-10-16T08:31:07;16.40;99.90
20827;DHT22;10574;52.508;13.236;2022-10-16T08:33:36;16.40;99.90
20827;DHT22;10574;52.508;13.236;2022-10-16T08:36:05;16.40;99.90
20827;DHT22;10574;52.508;13.236;2022-10-16T08:38:33;16.40;99.90
20827;DHT22;10574;52.508;13.236;2022-10-16T08:41:21;16.50;99.90
20827;DHT22;10574;52.508;13.236;2022-10-16T08:44:09;16.60;99.90
20827;DHT22;10574;52.508;13.236;2022-10-16T08:46:44;16.60;99.90
20827;DHT22;10574;52.508;13.236;2022-10-16T08:49:11;16.60;99.90
20827;DHT22;10574;52.508;13.236;2022-10-16T08:51:40;16.70;99.90
20827;DHT22;10574;52.508;13.236;2022-10-16T08:54:28;16.70;99.90
20827;DHT22;10574;52.508;13.236;2022-10-16T08:56:57;16.80;99.90
20827;DHT22;10574;52.508;13.236;2022-10-16T08:59:26;16.80;99.90
20827;DHT22;10574;52.508;13.236;2022-10-16T09:01:53;16.90;99.90
20827;DHT22;10574;52.508;13.236;2022-10-16T09:07:24;17.10;99.90
20827;DHT22;10574;52.508;13.236;2022-10-16T09:09:58;17.20;99.90
20827;DHT22;10574;52.508;13.236;2022-10-16T09:15:17;17.40;99.90
20827;DHT22;10574;52.508;13.236;2022-10-16T09:18:04;17.50;99.90
20827;DHT22;10574;52.508;13.236;2022-10-16T09:23:28;17.60;99.90
20827;DHT22;10574;52.508;13.236;2022-10-16T09:25:53;17.60;99.90
20827;DHT22;10574;52.508;13.236;2022-10-16T09:28:22;17.70;99.90
20827;DHT22;10574;52.508;13.236;2022-10-16T09:30:50;17.70;99.90
20827;DHT22;10574;52.508;13.236;2022-10-16T09:33:20;17.80;99.90
20827;DHT22;10574;52.508;13.236;2022-10-16T09:35:54;17.80;99.90
20827;DHT22;10574;52.508;13.236;2022-10-16T09:38:31;17.80;99.90
20827;DHT22;10574;52.508;13.236;2022-10-16T09:41:00;17.90;99.90
20827;DHT22;10574;52.508;13.236;2022-10-16T09:43:33;17.90;99.90
20827;DHT22;10574;52.508;13.236;2022-10-16T09:46:02;17.90;99.90
20827;DHT22;10574;52.508;13.236;2022-10-16T09:48:44;17.90;99.90
20827;DHT22;10574;52.508;13.236;2022-10-16T09:51:34;17.80;99.90
20827;DHT22;10574;52.508;13.236;2022-10-16T09:56:39;17.90;99.90
20827;DHT22;10574;52.508;13.236;2022-10-16T09:59:12;18.00;99.90
20827;DHT22;10574;52.508;13.236;2022-10-16T10:04:11;18.30;99.90
20827;DHT22;10574;52.508;13.236;2022-10-16T10:06:51;18.40;99.90
20827;DHT22;10574;52.508;13.236;2022-10-16T10:09:23;18.40;99.90
20827;DHT22;10574;52.508;13.236;2022-10-16T10:14:39;18.50;99.90
20827;DHT22;10574;52.508;13.236;2022-10-16T10:17:17;18.40;99.90
20827;DHT22;10574;52.508;13.236;2022-10-16T10:20:00;18.50;99.90
20827;DHT22;10574;52.508;13.236;2022-10-16T10:33:34;18.50;99.90
20827;DHT22;10574;52.508;13.236;2022-10-16T10:36:13;18.50;99.90
20827;DHT22;10574;52.508;13.236;2022-10-16T10:44:23;18.90;99.90
20827;DHT22;10574;52.508;13.236;2022-10-16T10:46:50;19.10;99.90
20827;DHT22;10574;52.508;13.236;2022-10-16T10:49:45;19.10;99.90
20827;DHT22;10574;52.508;13.236;2022-10-16T10:55:25;19.30;99.90
20827;DHT22;10574;52.508;13.236;2022-10-16T11:06:33;20.50;99.90
20827;DHT22;10574;52.508;13.236;2022-10-16T11:09:14;20.50;99.90
20827;DHT22;10574;52.508;13.236;2022-10-16T11:11:47;20.20;99.90
20827;DHT22;10574;52.508;13.236;2022-10-16T11:14:25;20.10;99.90
20827;DHT22;10574;52.508;13.236;2022-10-16T11:16:56;20.00;99.90
20827;DHT22;10574;52.508;13.236;2022-10-16T11:19:48;20.00;99.90
20827;DHT22;10574;52.508;13.236;2022-10-16T11:22:37;20.00;99.90
20827;DHT22;10574;52.508;13.236;2022-10-16T11:27:40;20.10;99.90
20827;DHT22;10574;52.508;13.236;2022-10-16T11:30:19;20.00;99.90
20827;DHT22;10574;52.508;13.236;2022-10-16T11:35:31;19.90;99.90
20827;DHT22;10574;52.508;13.236;2022-10-16T11:37:52;19.80;99.90
20827;DHT22;10574;52.508;13.236;2022-10-16T11:40:32;19.80;99.90
20827;DHT22;10574;52.508;13.236;2022-10-16T11:43:24;19.80;99.90
20827;DHT22;10574;52.508;13.236;2022-10-16T11:45:56;19.60;99.90
20827;DHT22;10574;52.508;13.236;2022-10-16T11:48:33;19.70;99.90
20827;DHT22;10574;52.508;13.236;2022-10-16T11:51:09;19.80;99.90
20827;DHT22;10574;52.508;13.236;2022-10-16T11:56:04;19.60;99.90
20827;DHT22;10574;52.508;13.236;2022-10-16T12:01:24;19.40;99.90
20827;DHT22;10574;52.508;13.236;2022-10-16T12:06:44;19.10;99.90
20827;DHT22;10574;52.508;13.236;2022-10-16T12:09:47;19.00;99.90
20827;DHT22;10574;52.508;13.236;2022-10-16T12:12:58;19.00;99.90
20827;DHT22;10574;52.508;13.236;2022-10-16T12:15:35;19.10;99.90
20827;DHT22;10574;52.508;13.236;2022-10-16T12:18:26;19.30;99.90
20827;DHT22;10574;52.508;13.236;2022-10-16T12:20:58;19.40;99.90
20827;DHT22;10574;52.508;13.236;2022-10-16T12:26:32;19.60;99.90
20827;DHT22;10574;52.508;13.236;2022-10-16T12:29:29;19.70;99.90
20827;DHT22;10574;52.508;13.236;2022-10-16T12:32:00;19.70;99.90
20827;DHT22;10574;52.508;13.236;2022-10-16T12:34:49;19.80;99.90
20827;DHT22;10574;52.508;13.236;2022-10-16T12:37:31;19.80;99.90
20827;DHT22;10574;52.508;13.236;2022-10-16T12:39:59;19.90;99.90
20827;DHT22;10574;52.508;13.236;2022-10-16T12:42:32;19.90;99.90
20827;DHT22;10574;52.508;13.236;2022-10-16T12:45:00;19.90;99.90
20827;DHT22;10574;52.508;13.236;2022-10-16T12:50:03;19.80;99.90
20827;DHT22;10574;52.508;13.236;2022-10-16T12:52:39;19.80;99.90
20827;DHT22;10574;52.508;13.236;2022-10-16T12:55:12;19.90;99.90
20827;DHT22;10574;52.508;13.236;2022-10-16T12:57:57;19.90;99.90
20827;DHT22;10574;52.508;13.236;2022-10-16T13:00:44;20.00;99.90
20827;DHT22;10574;52.508;13.236;2022-10-16T13:09:07;19.90;99.90
20827;DHT22;10574;52.508;13.236;2022-10-16T13:11:52;20.10;99.90
20827;DHT22;10574;52.508;13.236;2022-10-16T13:14:21;20.20;99.90
20827;DHT22;10574;52.508;13.236;2022-10-16T13:17:06;20.40;99.90
20827;DHT22;10574;52.508;13.236;2022-10-16T13:23:23;20.50;99.90
20827;DHT22;10574;52.508;13.236;2022-10-16T13:25:28;20.60;99.90
20827;DHT22;10574;52.508;13.236;2022-10-16T13:28:02;20.70;99.90
20827;DHT22;10574;52.508;13.236;2022-10-16T13:30:36;20.70;99.90
20827;DHT22;10574;52.508;13.236;2022-10-16T13:35:53;20.70;99.90
20827;DHT22;10574;52.508;13.236;2022-10-16T13:38:24;20.80;99.90
20827;DHT22;10574;52.508;13.236;2022-10-16T13:41:13;20.70;99.90
20827;DHT22;10574;52.508;13.236;2022-10-16T13:43:39;20.60;99.90
20827;DHT22;10574;52.508;13.236;2022-10-16T13:46:13;20.50;99.90
20827;DHT22;10574;52.508;13.236;2022-10-16T13:48:41;20.40;99.90
20827;DHT22;10574;52.508;13.236;2022-10-16T13:51:14;20.40;99.90
20827;DHT22;10574;52.508;13.236;2022-10-16T13:53:43;20.40;99.90
20827;DHT22;10574;52.508;13.236;2022-10-16T13:56:13;20.40;99.90
20827;DHT22;10574;52.508;13.236;2022-10-16T13:58:42;20.40;99.90
20827;DHT22;10574;52.508;13.236;2022-10-16T14:01:25;20.40;99.90
20827;DHT22;10574;52.508;13.236;2022-10-16T14:03:59;20.40;99.90
20827;DHT22;10574;52.508;13.236;2022-10-16T14:06:23;20.50;99.90
20827;DHT22;10574;52.508;13.236;2022-10-16T14:11:25;20.60;99.90
20827;DHT22;10574;52.508;13.236;2022-10-16T14:13:53;20.60;99.90
20827;DHT22;10574;52.508;13.236;2022-10-16T14:16:23;20.70;99.90
20827;DHT22;10574;52.508;13.236;2022-10-16T14:19:02;20.70;99.90
20827;DHT22;10574;52.508;13.236;2022-10-16T14:21:26;20.70;99.90
20827;DHT22;10574;52.508;13.236;2022-10-16T14:23:55;20.60;99.90
20827;DHT22;10574;52.508;13.236;2022-10-16T14:26:26;20.60;99.90
20827;DHT22;10574;52.508;13.236;2022-10-16T14:29:12;20.50;99.90
20827;DHT22;10574;52.508;13.236;2022-10-16T14:31:41;20.50;99.90
20827;DHT22;10574;52.508;13.236;2022-10-16T14:34:31;20.40;99.90
20827;DHT22;10574;52.508;13.236;2022-10-16T14:36:56;20.30;99.90
20827;DHT22;10574;52.508;13.236;2022-10-16T14:39:25;20.20;99.90
20827;DHT22;10574;52.508;13.236;2022-10-16T14:41:55;20.20;99.90
20827;DHT22;10574;52.508;13.236;2022-10-16T14:44:31;20.10;99.90
20827;DHT22;10574;52.508;13.236;2022-10-16T14:46:55;20.00;99.90
20827;DHT22;10574;52.508;13.236;2022-10-16T14:49:26;20.00;99.90
20827;DHT22;10574;52.508;13.236;2022-10-16T14:51:54;19.90;99.90
20827;DHT22;10574;52.508;13.236;2022-10-16T14:54:22;19.90;99.90
20827;DHT22;10574;52.508;13.236;2022-10-16T14:56:55;19.70;99.90
20827;DHT22;10574;52.508;13.236;2022-10-16T14:59:40;19.70;99.90
20827;DHT22;10574;52.508;13.236;2022-10-16T15:02:30;19.70;99.90
20827;DHT22;10574;52.508;13.236;2022-10-16T15:05:14;19.60;99.90
20827;DHT22;10574;52.508;13.236;2022-10-16T15:07:41;19.50;99.90
20827;DHT22;10574;52.508;13.236;2022-10-16T15:10:09;19.50;99.90
20827;DHT22;10574;52.508;13.236;2022-10-16T15:12:37;19.40;99.90
20827;DHT22;10574;52.508;13.236;2022-10-16T15:15:32;19.40;99.90
20827;DHT22;10574;52.508;13.236;2022-10-16T15:18:00;19.30;99.90
20827;DHT22;10574;52.508;13.236;2022-10-16T15:20:31;19.20;99.90
20827;DHT22;10574;52.508;13.236;2022-10-16T15:23:10;19.20;99.90
20827;DHT22;10574;52.508;13.236;2022-10-16T15:25:47;19.10;99.90
20827;DHT22;10574;52.508;13.236;2022-10-16T15:28:16;19.00;99.90
20827;DHT22;10574;52.508;13.236;2022-10-16T15:30:45;19.00;99.90
20827;DHT22;10574;52.508;13.236;2022-10-16T15:33:15;18.90;99.90
20827;DHT22;10574;52.508;13.236;2022-10-16T15:35:46;18.90;99.90
20827;DHT22;10574;52.508;13.236;2022-10-16T15:38:13;18.70;99.90
20827;DHT22;10574;52.508;13.236;2022-10-16T15:40:41;18.70;99.90
20827;DHT22;10574;52.508;13.236;2022-10-16T15:43:10;18.60;99.90
20827;DHT22;10574;52.508;13.236;2022-10-16T15:45:38;18.50;99.90
20827;DHT22;10574;52.508;13.236;2022-10-16T15:48:06;18.50;99.90
20827;DHT22;10574;52.508;13.236;2022-10-16T15:50:34;18.40;99.90
20827;DHT22;10574;52.508;13.236;2022-10-16T15:53:03;18.30;99.90
20827;DHT22;10574;52.508;13.236;2022-10-16T15:55:31;18.20;99.90
20827;DHT22;10574;52.508;13.236;2022-10-16T15:57:59;18.20;99.90
20827;DHT22;10574;52.508;13.236;2022-10-16T16:00:26;18.00;99.90
20827;DHT22;10574;52.508;13.236;2022-10-16T16:02:54;18.00;99.90
20827;DHT22;10574;52.508;13.236;2022-10-16T16:05:22;17.80;99.90
20827;DHT22;10574;52.508;13.236;2022-10-16T16:07:50;17.70;99.90
20827;DHT22;10574;52.508;13.236;2022-10-16T16:10:18;17.70;99.90
20827;DHT22;10574;52.508;13.236;2022-10-16T16:12:48;17.60;99.90
20827;DHT22;10574;52.508;13.236;2022-10-16T16:15:19;17.50;99.90
20827;DHT22;10574;52.508;13.236;2022-10-16T16:17:47;17.30;99.90
20827;DHT22;10574;52.508;13.236;2022-10-16T16:20:15;17.30;99.90
20827;DHT22;10574;52.508;13.236;2022-10-16T16:22:43;17.20;99.90
20827;DHT22;10574;52.508;13.236;2022-10-16T16:25:10;17.10;99.90
20827;DHT22;10574;52.508;13.236;2022-10-16T16:27:39;17.00;99.90
20827;DHT22;10574;52.508;13.236;2022-10-16T16:30:08;16.90;99.90
20827;DHT22;10574;52.508;13.236;2022-10-16T16:32:36;16.70;99.90
20827;DHT22;10574;52.508;13.236;2022-10-16T16:35:04;16.60;99.90
20827;DHT22;10574;52.508;13.236;2022-10-16T16:37:32;16.50;99.90
20827;DHT22;10574;52.508;13.236;2022-10-16T16:40:00;16.40;99.90
20827;DHT22;10574;52.508;13.236;2022-10-16T16:42:27;16.30;99.90
20827;DHT22;10574;52.508;13.236;2022-10-16T16:44:55;16.20;99.90
20827;DHT22;10574;52.508;13.236;2022-10-16T16:47:23;16.10;99.90
20827;DHT22;10574;52.508;13.236;2022-10-16T16:49:50;16.00;99.90
20827;DHT22;10574;52.508;13.236;2022-10-16T16:52:18;16.00;99.90
20827;DHT22;10574;52.508;13.236;2022-10-16T16:54:56;15.90;99.90
20827;DHT22;10574;52.508;13.236;2022-10-16T16:57:25;15.80;99.90
20827;DHT22;10574;52.508;13.236;2022-10-16T16:59:52;15.70;99.90
20827;DHT22;10574;52.508;13.236;2022-10-16T17:02:20;15.70;99.90
20827;DHT22;10574;52.508;13.236;2022-10-16T17:04:47;15.60;99.90
20827;DHT22;10574;52.508;13.236;2022-10-16T17:07:15;15.50;99.90
20827;DHT22;10574;52.508;13.236;2022-10-16T17:09:43;15.50;99.90
20827;DHT22;10574;52.508;13.236;2022-10-16T17:12:10;15.40;99.90
20827;DHT22;10574;52.508;13.236;2022-10-16T17:14:38;15.40;99.90
20827;DHT22;10574;52.508;13.236;2022-10-16T17:17:05;15.30;99.90
20827;DHT22;10574;52.508;13.236;2022-10-16T17:19:33;15.20;99.90